sensor_id;sensor_type;location;lat;lon;timestamp;temperature;humidity
17998;DHT22;9124;48.144;17.098;2022-07-30T00:01:12;21.60;81.90
17998;DHT22;9124;48.144;17.098;2022-07-30T00:04:48;21.50;82.00
17998;DHT22;9124;48.144;17.098;2022-07-30T00:08:25;21.50;82.30
17998;DHT22;9124;48.144;17.098;2022-07-30T00:12:03;21.40;82.50
17998;DHT22;9124;48.144;17.098;2022-07-30T00:15:40;21.40;82.80
17998;DHT22;9124;48.144;17.098;2022-07-30T00:19:17;21.40;82.90
17998;DHT22;9124;48.144;17.098;2022-07-30T00:22:53;21.50;83.10
17998;DHT22;9124;48.144;17.098;2022-07-30T00:26:30;21.50;83.10
17998;DHT22;9124;48.144;17.098;2022-07-30T00:30:08;21.60;83.10
17998;DHT22;9124;48.144;17.098;2022-07-30T00:33:45;21.70;83.20
17998;DHT22;9124;48.144;17.098;2022-07-30T00:37:21;21.70;83.40
17998;DHT22;9124;48.144;17.098;2022-07-30T00:40:58;21.70;84.10
17998;DHT22;9124;48.144;17.098;2022-07-30T00:44:35;21.70;85.20
17998;DHT22;9124;48.144;17.098;2022-07-30T00:48:13;21.70;86.10
17998;DHT22;9124;48.144;17.098;2022-07-30T00:51:50;21.60;87.20
17998;DHT22;9124;48.144;17.098;2022-07-30T00:55:28;21.60;88.20
17998;DHT22;9124;48.144;17.098;2022-07-30T00:59:05;21.60;89.00
17998;DHT22;9124;48.144;17.098;2022-07-30T01:02:42;21.60;89.50
17998;DHT22;9124;48.144;17.098;2022-07-30T01:06:18;21.50;90.00
17998;DHT22;9124;48.144;17.098;2022-07-30T01:09:56;21.30;90.20
17998;DHT22;9124;48.144;17.098;2022-07-30T01:13:32;21.30;90.70
17998;DHT22;9124;48.144;17.098;2022-07-30T01:17:09;21.10;91.00
17998;DHT22;9124;48.144;17.098;2022-07-30T01:21:04;21.10;91.30
17998;DHT22;9124;48.144;17.098;2022-07-30T01:24:51;21.10;91.80
17998;DHT22;9124;48.144;17.098;2022-07-30T01:32:37;21.20;92.20
17998;DHT22;9124;48.144;17.098;2022-07-30T01:36:17;21.20;92.40
17998;DHT22;9124;48.144;17.098;2022-07-30T01:39:58;21.20;92.50
17998;DHT22;9124;48.144;17.098;2022-07-30T01:43:36;21.30;92.60
17998;DHT22;9124;48.144;17.098;2022-07-30T01:47:16;21.30;92.70
17998;DHT22;9124;48.144;17.098;2022-07-30T01:50:56;21.30;92.90
17998;DHT22;9124;48.144;17.098;2022-07-30T01:54:35;21.20;93.10
17998;DHT22;9124;48.144;17.098;2022-07-30T01:58:17;21.10;93.60
17998;DHT22;9124;48.144;17.098;2022-07-30T02:01:58;21.10;93.60
17998;DHT22;9124;48.144;17.098;2022-07-30T02:05:35;21.10;93.70
17998;DHT22;9124;48.144;17.098;2022-07-30T02:09:15;21.10;93.90
17998;DHT22;9124;48.144;17.098;2022-07-30T02:12:55;21.10;94.10
17998;DHT22;9124;48.144;17.098;2022-07-30T02:16:37;21.10;94.30
17998;DHT22;9124;48.144;17.098;2022-07-30T02:20:15;21.10;94.50
17998;DHT22;9124;48.144;17.098;2022-07-30T02:23:55;21.00;94.50
17998;DHT22;9124;48.144;17.098;2022-07-30T02:27:35;21.00;94.70
17998;DHT22;9124;48.144;17.098;2022-07-30T02:31:18;20.90;94.90
17998;DHT22;9124;48.144;17.098;2022-07-30T02:35:00;20.80;95.20
17998;DHT22;9124;48.144;17.098;2022-07-30T02:38:42;20.80;95.30
17998;DHT22;9124;48.144;17.098;2022-07-30T02:42:20;20.70;95.40
17998;DHT22;9124;48.144;17.098;2022-07-30T02:45:59;20.70;95.60
17998;DHT22;9124;48.144;17.098;2022-07-30T02:49:52;20.60;95.80
17998;DHT22;9124;48.144;17.098;2022-07-30T02:53:32;20.60;96.00
17998;DHT22;9124;48.144;17.098;2022-07-30T02:57:10;20.50;96.20
17998;DHT22;9124;48.144;17.098;2022-07-30T03:00:51;20.50;96.30
17998;DHT22;9124;48.144;17.098;2022-07-30T03:04:30;20.40;96.50
17998;DHT22;9124;48.144;17.098;2022-07-30T03:08:09;20.40;96.70
17998;DHT22;9124;48.144;17.098;2022-07-30T03:11:48;20.40;96.80
17998;DHT22;9124;48.144;17.098;2022-07-30T03:15:27;20.40;97.00
17998;DHT22;9124;48.144;17.098;2022-07-30T03:19:07;20.40;97.20
17998;DHT22;9124;48.144;17.098;2022-07-30T03:22:50;20.50;97.30
17998;DHT22;9124;48.144;17.098;2022-07-30T03:26:29;20.60;97.30
17998;DHT22;9124;48.144;17.098;2022-07-30T03:30:07;20.70;97.20
17998;DHT22;9124;48.144;17.098;2022-07-30T03:33:46;20.60;97.20
17998;DHT22;9124;48.144;17.098;2022-07-30T03:37:24;20.80;97.20
17998;DHT22;9124;48.144;17.098;2022-07-30T03:41:03;20.80;97.20
17998;DHT22;9124;48.144;17.098;2022-07-30T03:44:41;20.80;97.20
17998;DHT22;9124;48.144;17.098;2022-07-30T03:48:22;20.90;97.20
17998;DHT22;9124;48.144;17.098;2022-07-30T03:52:02;20.90;97.10
17998;DHT22;9124;48.144;17.098;2022-07-30T03:55:41;21.00;97.10
17998;DHT22;9124;48.144;17.098;2022-07-30T03:59:45;21.00;97.10
17998;DHT22;9124;48.144;17.098;2022-07-30T04:03:27;21.10;97.00
17998;DHT22;9124;48.144;17.098;2022-07-30T04:07:08;21.10;96.80
17998;DHT22;9124;48.144;17.098;2022-07-30T04:10:46;21.10;96.70
17998;DHT22;9124;48.144;17.098;2022-07-30T04:14:23;21.20;96.60
17998;DHT22;9124;48.144;17.098;2022-07-30T04:18:02;21.20;96.30
17998;DHT22;9124;48.144;17.098;2022-07-30T04:21:41;21.20;96.20
17998;DHT22;9124;48.144;17.098;2022-07-30T04:25:21;21.10;96.20
17998;DHT22;9124;48.144;17.098;2022-07-30T04:29:00;21.10;96.30
17998;DHT22;9124;48.144;17.098;2022-07-30T04:32:39;21.10;96.30
17998;DHT22;9124;48.144;17.098;2022-07-30T04:36:18;21.00;96.50
17998;DHT22;9124;48.144;17.098;2022-07-30T04:39:56;20.80;96.80
17998;DHT22;9124;48.144;17.098;2022-07-30T04:43:33;20.70;97.10
17998;DHT22;9124;48.144;17.098;2022-07-30T04:47:10;20.60;97.50
17998;DHT22;9124;48.144;17.098;2022-07-30T04:50:59;20.50;97.90
17998;DHT22;9124;48.144;17.098;2022-07-30T04:54:44;20.50;98.20
17998;DHT22;9124;48.144;17.098;2022-07-30T04:58:22;20.50;98.40
17998;DHT22;9124;48.144;17.098;2022-07-30T05:02:01;20.50;98.50
17998;DHT22;9124;48.144;17.098;2022-07-30T05:05:39;20.30;98.80
17998;DHT22;9124;48.144;17.098;2022-07-30T05:09:17;20.20;99.20
17998;DHT22;9124;48.144;17.098;2022-07-30T05:12:54;20.20;99.50
17998;DHT22;9124;48.144;17.098;2022-07-30T05:16:32;20.30;99.70
17998;DHT22;9124;48.144;17.098;2022-07-30T05:20:12;20.30;99.70
17998;DHT22;9124;48.144;17.098;2022-07-30T05:24:10;20.20;99.90
17998;DHT22;9124;48.144;17.098;2022-07-30T05:27:50;20.30;99.90
17998;DHT22;9124;48.144;17.098;2022-07-30T05:31:28;20.30;99.90
17998;DHT22;9124;48.144;17.098;2022-07-30T05:35:08;20.30;99.90
17998;DHT22;9124;48.144;17.098;2022-07-30T05:38:47;20.30;99.90
17998;DHT22;9124;48.144;17.098;2022-07-30T05:42:42;20.40;99.90
17998;DHT22;9124;48.144;17.098;2022-07-30T05:46:19;20.40;99.90
17998;DHT22;9124;48.144;17.098;2022-07-30T05:49:56;20.50;99.90
17998;DHT22;9124;48.144;17.098;2022-07-30T05:53:34;20.50;99.90
17998;DHT22;9124;48.144;17.098;2022-07-30T05:57:35;20.50;99.90
17998;DHT22;9124;48.144;17.098;2022-07-30T06:01:14;20.50;99.90
17998;DHT22;9124;48.144;17.098;2022-07-30T06:04:52;20.40;99.90
17998;DHT22;9124;48.144;17.098;2022-07-30T06:08:29;20.40;99.90
17998;DHT22;9124;48.144;17.098;2022-07-30T06:12:06;20.40;99.90
17998;DHT22;9124;48.144;17.098;2022-07-30T06:15:44;20.40;99.90
17998;DHT22;9124;48.144;17.098;2022-07-30T06:19:21;20.40;99.90
17998;DHT22;9124;48.144;17.098;2022-07-30T06:22:58;20.40;99.90
17998;DHT22;9124;48.144;17.098;2022-07-30T06:26:46;20.40;99.90
17998;DHT22;9124;48.144;17.098;2022-07-30T06:30:24;20.30;99.90
17998;DHT22;9124;48.144;17.098;2022-07-30T06:34:01;20.30;99.90
17998;DHT22;9124;48.144;17.098;2022-07-30T06:37:43;20.40;99.90
17998;DHT22;9124;48.144;17.098;2022-07-30T06:41:21;20.30;99.90
17998;DHT22;9124;48.144;17.098;2022-07-30T06:45:02;20.20;99.90
17998;DHT22;9124;48.144;17.098;2022-07-30T06:48:59;20.10;99.90
17998;DHT22;9124;48.144;17.098;2022-07-30T06:52:35;19.90;99.90
17998;DHT22;9124;48.144;17.098;2022-07-30T06:56:13;19.80;99.90
17998;DHT22;9124;48.144;17.098;2022-07-30T06:59:57;19.80;99.90
17998;DHT22;9124;48.144;17.098;2022-07-30T07:03:39;20.00;99.90
17998;DHT22;9124;48.144;17.098;2022-07-30T07:07:16;20.10;99.90
17998;DHT22;9124;48.144;17.098;2022-07-30T07:10:54;20.10;99.90
17998;DHT22;9124;48.144;17.098;2022-07-30T07:14:40;20.10;99.90
17998;DHT22;9124;48.144;17.098;2022-07-30T07:18:17;20.20;99.90
17998;DHT22;9124;48.144;17.098;2022-07-30T07:22:00;20.10;99.90
17998;DHT22;9124;48.144;17.098;2022-07-30T07:25:39;20.10;99.90
17998;DHT22;9124;48.144;17.098;2022-07-30T07:29:16;20.10;99.90
17998;DHT22;9124;48.144;17.098;2022-07-30T07:32:53;20.10;99.90
17998;DHT22;9124;48.144;17.098;2022-07-30T07:36:30;20.20;99.90
17998;DHT22;9124;48.144;17.098;2022-07-30T07:40:07;20.20;99.90
17998;DHT22;9124;48.144;17.098;2022-07-30T07:43:49;20.20;99.90
17998;DHT22;9124;48.144;17.098;2022-07-30T07:47:48;20.20;99.90
17998;DHT22;9124;48.144;17.098;2022-07-30T07:51:51;20.30;99.90
17998;DHT22;9124;48.144;17.098;2022-07-30T07:55:30;20.40;99.90
17998;DHT22;9124;48.144;17.098;2022-07-30T07:59:07;20.40;99.90
17998;DHT22;9124;48.144;17.098;2022-07-30T08:02:45;20.60;99.90
17998;DHT22;9124;48.144;17.098;2022-07-30T08:06:23;20.60;99.90
17998;DHT22;9124;48.144;17.098;2022-07-30T08:10:18;20.70;99.90
17998;DHT22;9124;48.144;17.098;2022-07-30T08:14:15;20.60;99.90
17998;DHT22;9124;48.144;17.098;2022-07-30T08:18:19;20.70;99.90
17998;DHT22;9124;48.144;17.098;2022-07-30T08:22:09;20.70;99.90
17998;DHT22;9124;48.144;17.098;2022-07-30T08:25:47;20.70;99.90
17998;DHT22;9124;48.144;17.098;2022-07-30T08:29:24;20.80;99.90
17998;DHT22;9124;48.144;17.098;2022-07-30T08:33:01;20.80;99.90
17998;DHT22;9124;48.144;17.098;2022-07-30T08:36:40;20.90;99.90
17998;DHT22;9124;48.144;17.098;2022-07-30T08:40:19;21.00;99.90
17998;DHT22;9124;48.144;17.098;2022-07-30T08:44:11;21.00;99.90
17998;DHT22;9124;48.144;17.098;2022-07-30T08:47:49;21.10;99.90
17998;DHT22;9124;48.144;17.098;2022-07-30T08:51:33;21.20;99.90
17998;DHT22;9124;48.144;17.098;2022-07-30T08:55:19;21.30;99.90
17998;DHT22;9124;48.144;17.098;2022-07-30T08:58:57;21.30;99.90
17998;DHT22;9124;48.144;17.098;2022-07-30T09:02:35;21.40;99.90
17998;DHT22;9124;48.144;17.098;2022-07-30T09:06:14;21.60;99.90
17998;DHT22;9124;48.144;17.098;2022-07-30T09:09:51;21.70;99.90
17998;DHT22;9124;48.144;17.098;2022-07-30T09:13:37;21.90;99.90
17998;DHT22;9124;48.144;17.098;2022-07-30T09:17:15;22.10;99.90
17998;DHT22;9124;48.144;17.098;2022-07-30T09:20:53;22.00;99.90
17998;DHT22;9124;48.144;17.098;2022-07-30T09:24:41;21.90;99.90
17998;DHT22;9124;48.144;17.098;2022-07-30T09:28:48;21.90;99.90
17998;DHT22;9124;48.144;17.098;2022-07-30T09:32:58;22.20;99.90
17998;DHT22;9124;48.144;17.098;2022-07-30T09:36:55;22.40;99.80
17998;DHT22;9124;48.144;17.098;2022-07-30T09:40:57;22.70;99.40
17998;DHT22;9124;48.144;17.098;2022-07-30T09:44:46;23.00;98.70
17998;DHT22;9124;48.144;17.098;2022-07-30T09:48:26;23.10;98.30
17998;DHT22;9124;48.144;17.098;2022-07-30T09:52:03;23.10;97.90
17998;DHT22;9124;48.144;17.098;2022-07-30T09:55:45;23.20;97.80
17998;DHT22;9124;48.144;17.098;2022-07-30T09:59:27;23.30;97.50
17998;DHT22;9124;48.144;17.098;2022-07-30T10:03:20;23.40;97.20
17998;DHT22;9124;48.144;17.098;2022-07-30T10:07:18;23.60;97.00
17998;DHT22;9124;48.144;17.098;2022-07-30T10:10:56;23.70;96.60
17998;DHT22;9124;48.144;17.098;2022-07-30T10:14:35;23.70;96.10
17998;DHT22;9124;48.144;17.098;2022-07-30T10:18:15;23.80;95.80
17998;DHT22;9124;48.144;17.098;2022-07-30T10:22:05;23.80;95.70
17998;DHT22;9124;48.144;17.098;2022-07-30T10:26:01;24.00;95.70
17998;DHT22;9124;48.144;17.098;2022-07-30T10:29:59;24.10;95.40
17998;DHT22;9124;48.144;17.098;2022-07-30T10:33:37;24.10;95.00
17998;DHT22;9124;48.144;17.098;2022-07-30T10:37:14;24.00;95.10
17998;DHT22;9124;48.144;17.098;2022-07-30T10:41:01;24.00;95.00
17998;DHT22;9124;48.144;17.098;2022-07-30T10:48:38;23.90;95.30
17998;DHT22;9124;48.144;17.098;2022-07-30T10:56:31;24.90;94.60
17998;DHT22;9124;48.144;17.098;2022-07-30T11:00:08;25.30;93.90
17998;DHT22;9124;48.144;17.098;2022-07-30T11:04:16;25.30;93.70
17998;DHT22;9124;48.144;17.098;2022-07-30T11:07:53;25.30;93.20
17998;DHT22;9124;48.144;17.098;2022-07-30T11:15:14;24.80;93.30
17998;DHT22;9124;48.144;17.098;2022-07-30T11:19:10;24.70;93.30
17998;DHT22;9124;48.144;17.098;2022-07-30T11:22:48;24.60;93.40
17998;DHT22;9124;48.144;17.098;2022-07-30T11:38:11;24.90;93.30
17998;DHT22;9124;48.144;17.098;2022-07-30T11:42:29;25.10;92.90
17998;DHT22;9124;48.144;17.098;2022-07-30T11:46:08;25.80;92.40
17998;DHT22;9124;48.144;17.098;2022-07-30T11:49:46;26.70;91.50
17998;DHT22;9124;48.144;17.098;2022-07-30T11:53:22;26.80;90.60
17998;DHT22;9124;48.144;17.098;2022-07-30T11:56:59;26.60;90.50
17998;DHT22;9124;48.144;17.098;2022-07-30T12:00:41;26.30;90.50
17998;DHT22;9124;48.144;17.098;2022-07-30T12:04:23;26.20;90.50
17998;DHT22;9124;48.144;17.098;2022-07-30T12:07:59;26.00;90.50
17998;DHT22;9124;48.144;17.098;2022-07-30T12:11:37;26.00;90.60
17998;DHT22;9124;48.144;17.098;2022-07-30T12:15:31;25.90;90.30
17998;DHT22;9124;48.144;17.098;2022-07-30T12:19:08;26.00;90.40
17998;DHT22;9124;48.144;17.098;2022-07-30T12:22:45;26.20;90.40
17998;DHT22;9124;48.144;17.098;2022-07-30T12:26:27;26.20;90.20
17998;DHT22;9124;48.144;17.098;2022-07-30T12:30:05;26.10;89.70
17998;DHT22;9124;48.144;17.098;2022-07-30T12:33:44;26.20;89.40
17998;DHT22;9124;48.144;17.098;2022-07-30T12:37:21;26.60;89.40
17998;DHT22;9124;48.144;17.098;2022-07-30T12:41:05;26.90;88.20
17998;DHT22;9124;48.144;17.098;2022-07-30T12:44:42;27.10;86.50
17998;DHT22;9124;48.144;17.098;2022-07-30T12:48:22;27.30;86.10
17998;DHT22;9124;48.144;17.098;2022-07-30T12:51:58;27.70;84.80
17998;DHT22;9124;48.144;17.098;2022-07-30T12:55:36;27.60;84.00
17998;DHT22;9124;48.144;17.098;2022-07-30T12:59:22;26.90;83.30
17998;DHT22;9124;48.144;17.098;2022-07-30T13:02:59;26.40;84.70
17998;DHT22;9124;48.144;17.098;2022-07-30T13:06:36;25.70;85.10
17998;DHT22;9124;48.144;17.098;2022-07-30T13:10:13;25.20;86.40
17998;DHT22;9124;48.144;17.098;2022-07-30T13:13:53;24.90;87.60
17998;DHT22;9124;48.144;17.098;2022-07-30T13:17:31;24.80;88.30
17998;DHT22;9124;48.144;17.098;2022-07-30T13:21:08;24.80;89.00
17998;DHT22;9124;48.144;17.098;2022-07-30T13:24:45;24.80;89.50
17998;DHT22;9124;48.144;17.098;2022-07-30T13:28:22;25.10;89.30
17998;DHT22;9124;48.144;17.098;2022-07-30T13:31:59;25.50;89.60
17998;DHT22;9124;48.144;17.098;2022-07-30T13:35:36;26.00;88.80
17998;DHT22;9124;48.144;17.098;2022-07-30T13:39:13;26.40;88.30
17998;DHT22;9124;48.144;17.098;2022-07-30T13:42:49;26.60;87.70
17998;DHT22;9124;48.144;17.098;2022-07-30T13:46:27;26.60;87.10
17998;DHT22;9124;48.144;17.098;2022-07-30T13:50:04;26.70;87.00
17998;DHT22;9124;48.144;17.098;2022-07-30T13:53:41;26.60;85.50
17998;DHT22;9124;48.144;17.098;2022-07-30T13:57:17;26.20;85.60
17998;DHT22;9124;48.144;17.098;2022-07-30T14:00:55;26.00;85.90
17998;DHT22;9124;48.144;17.098;2022-07-30T14:04:31;26.00;86.10
17998;DHT22;9124;48.144;17.098;2022-07-30T14:08:09;26.10;86.10
17998;DHT22;9124;48.144;17.098;2022-07-30T14:11:46;26.20;85.60
17998;DHT22;9124;48.144;17.098;2022-07-30T14:15:25;25.80;85.30
17998;DHT22;9124;48.144;17.098;2022-07-30T14:19:02;25.50;85.10
17998;DHT22;9124;48.144;17.098;2022-07-30T14:22:39;25.30;85.70
17998;DHT22;9124;48.144;17.098;2022-07-30T14:26:16;25.30;86.00
17998;DHT22;9124;48.144;17.098;2022-07-30T14:29:53;25.30;86.10
17998;DHT22;9124;48.144;17.098;2022-07-30T14:33:30;25.40;86.00
17998;DHT22;9124;48.144;17.098;2022-07-30T14:37:07;25.60;86.00
17998;DHT22;9124;48.144;17.098;2022-07-30T14:40:43;25.50;86.10
17998;DHT22;9124;48.144;17.098;2022-07-30T14:44:22;25.40;86.30
17998;DHT22;9124;48.144;17.098;2022-07-30T14:47:59;25.30;86.20
17998;DHT22;9124;48.144;17.098;2022-07-30T14:51:36;25.10;86.60
17998;DHT22;9124;48.144;17.098;2022-07-30T14:55:13;24.90;87.10
17998;DHT22;9124;48.144;17.098;2022-07-30T14:58:50;24.60;87.50
17998;DHT22;9124;48.144;17.098;2022-07-30T15:02:28;24.50;87.90
17998;DHT22;9124;48.144;17.098;2022-07-30T15:06:04;24.50;88.20
17998;DHT22;9124;48.144;17.098;2022-07-30T15:09:45;24.40;88.50
17998;DHT22;9124;48.144;17.098;2022-07-30T15:13:21;24.30;88.70
17998;DHT22;9124;48.144;17.098;2022-07-30T15:16:58;24.10;89.50
17998;DHT22;9124;48.144;17.098;2022-07-30T15:20:35;24.00;89.60
17998;DHT22;9124;48.144;17.098;2022-07-30T15:24:12;23.80;89.80
17998;DHT22;9124;48.144;17.098;2022-07-30T15:27:48;23.80;90.10
17998;DHT22;9124;48.144;17.098;2022-07-30T15:31:27;23.80;90.10
17998;DHT22;9124;48.144;17.098;2022-07-30T15:35:04;24.00;90.10
17998;DHT22;9124;48.144;17.098;2022-07-30T15:38:41;24.10;90.00
17998;DHT22;9124;48.144;17.098;2022-07-30T15:42:18;24.30;89.90
17998;DHT22;9124;48.144;17.098;2022-07-30T15:45:55;24.50;89.40
17998;DHT22;9124;48.144;17.098;2022-07-30T15:49:32;24.70;88.80
17998;DHT22;9124;48.144;17.098;2022-07-30T15:53:09;24.70;87.70
17998;DHT22;9124;48.144;17.098;2022-07-30T15:56:47;24.70;87.70
17998;DHT22;9124;48.144;17.098;2022-07-30T16:00:24;24.60;86.80
17998;DHT22;9124;48.144;17.098;2022-07-30T16:04:02;24.50;86.30
17998;DHT22;9124;48.144;17.098;2022-07-30T16:07:39;24.30;86.10
17998;DHT22;9124;48.144;17.098;2022-07-30T16:11:16;24.20;86.60
17998;DHT22;9124;48.144;17.098;2022-07-30T16:14:53;24.00;86.90
17998;DHT22;9124;48.144;17.098;2022-07-30T16:18:29;23.80;87.50
17998;DHT22;9124;48.144;17.098;2022-07-30T16:22:06;23.60;87.90
17998;DHT22;9124;48.144;17.098;2022-07-30T16:25:43;23.60;88.60
17998;DHT22;9124;48.144;17.098;2022-07-30T16:29:20;23.70;88.80
17998;DHT22;9124;48.144;17.098;2022-07-30T16:32:57;23.60;89.20
17998;DHT22;9124;48.144;17.098;2022-07-30T16:36:33;23.30;89.40
17998;DHT22;9124;48.144;17.098;2022-07-30T16:40:11;23.00;90.00
17998;DHT22;9124;48.144;17.098;2022-07-30T16:43:47;22.80;90.50
17998;DHT22;9124;48.144;17.098;2022-07-30T16:47:24;22.80;90.80
17998;DHT22;9124;48.144;17.098;2022-07-30T16:51:01;22.90;91.40
17998;DHT22;9124;48.144;17.098;2022-07-30T16:54:38;22.90;91.70
17998;DHT22;9124;48.144;17.098;2022-07-30T16:58:15;23.00;91.90
17998;DHT22;9124;48.144;17.098;2022-07-30T17:01:53;23.00;92.00
17998;DHT22;9124;48.144;17.098;2022-07-30T17:05:29;22.90;92.10
17998;DHT22;9124;48.144;17.098;2022-07-30T17:09:06;22.80;92.50
17998;DHT22;9124;48.144;17.098;2022-07-30T17:12:43;22.80;92.90
17998;DHT22;9124;48.144;17.098;2022-07-30T17:16:20;22.70;93.10
17998;DHT22;9124;48.144;17.098;2022-07-30T17:19:57;22.50;93.50
17998;DHT22;9124;48.144;17.098;2022-07-30T17:23:37;22.40;93.70
17998;DHT22;9124;48.144;17.098;2022-07-30T17:27:14;22.30;94.00
17998;DHT22;9124;48.144;17.098;2022-07-30T17:30:51;22.20;94.20
17998;DHT22;9124;48.144;17.098;2022-07-30T17:34:27;22.00;94.20
17998;DHT22;9124;48.144;17.098;2022-07-30T17:38:04;21.80;94.40
17998;DHT22;9124;48.144;17.098;2022-07-30T17:41:42;21.50;94.60
17998;DHT22;9124;48.144;17.098;2022-07-30T17:45:19;21.30;94.90
17998;DHT22;9124;48.144;17.098;2022-07-30T17:48:56;21.10;95.00
17998;DHT22;9124;48.144;17.098;2022-07-30T17:52:33;20.80;95.20
17998;DHT22;9124;48.144;17.098;2022-07-30T17:56:10;20.60;95.40
17998;DHT22;9124;48.144;17.098;2022-07-30T17:59:49;20.30;95.40
17998;DHT22;9124;48.144;17.098;2022-07-30T18:03:25;20.10;95.60
17998;DHT22;9124;48.144;17.098;2022-07-30T18:07:03;19.90;95.90
17998;DHT22;9124;48.144;17.098;2022-07-30T18:10:39;19.80;96.10
17998;DHT22;9124;48.144;17.098;2022-07-30T18:14:17;19.70;96.40
17998;DHT22;9124;48.144;17.098;2022-07-30T18:17:53;19.70;96.70
17998;DHT22;9124;48.144;17.098;2022-07-30T18:21:30;19.70;97.00
17998;DHT22;9124;48.144;17.098;2022-07-30T18:25:08;19.60;97.30
17998;DHT22;9124;48.144;17.098;2022-07-30T18:28:45;19.60;97.60
17998;DHT22;9124;48.144;17.098;2022-07-30T18:32:25;19.50;98.00
17998;DHT22;9124;48.144;17.098;2022-07-30T18:36:01;19.50;98.30
17998;DHT22;9124;48.144;17.098;2022-07-30T18:39:38;19.50;98.50
17998;DHT22;9124;48.144;17.098;2022-07-30T18:43:15;19.50;98.50
17998;DHT22;9124;48.144;17.098;2022-07-30T18:46:54;19.60;98.60
17998;DHT22;9124;48.144;17.098;2022-07-30T18:50:31;19.60;98.60
17998;DHT22;9124;48.144;17.098;2022-07-30T18:54:08;19.50;98.80
17998;DHT22;9124;48.144;17.098;2022-07-30T18:57:45;19.50;98.90
17998;DHT22;9124;48.144;17.098;2022-07-30T19:01:22;19.50;99.20
17998;DHT22;9124;48.144;17.098;2022-07-30T19:04:59;19.40;99.20
17998;DHT22;9124;48.144;17.098;2022-07-30T19:08:36;19.30;99.40
17998;DHT22;9124;48.144;17.098;2022-07-30T19:12:13;19.20;99.70
17998;DHT22;9124;48.144;17.098;2022-07-30T19:15:50;19.20;99.90
17998;DHT22;9124;48.144;17.098;2022-07-30T19:19:26;19.20;99.90
17998;DHT22;9124;48.144;17.098;2022-07-30T19:23:05;19.10;99.90
17998;DHT22;9124;48.144;17.098;2022-07-30T19:26:42;19.10;99.90
17998;DHT22;9124;48.144;17.098;2022-07-30T19:30:19;19.10;99.90
17998;DHT22;9124;48.144;17.098;2022-07-30T19:33:57;19.10;99.90
17998;DHT22;9124;48.144;17.098;2022-07-30T19:37:33;19.10;99.90
17998;DHT22;9124;48.144;17.098;2022-07-30T19:41:12;19.00;99.90
17998;DHT22;9124;48.144;17.098;2022-07-30T19:44:49;19.00;99.90
17998;DHT22;9124;48.144;17.098;2022-07-30T19:48:26;19.00;99.90
17998;DHT22;9124;48.144;17.098;2022-07-30T19:52:03;18.90;99.90
17998;DHT22;9124;48.144;17.098;2022-07-30T19:55:41;18.80;99.90
17998;DHT22;9124;48.144;17.098;2022-07-30T19:59:17;18.80;99.90
17998;DHT22;9124;48.144;17.098;2022-07-30T20:02:54;18.70;99.90
17998;DHT22;9124;48.144;17.098;2022-07-30T20:06:31;18.70;99.90
17998;DHT22;9124;48.144;17.098;2022-07-30T20:10:09;18.70;99.90
17998;DHT22;9124;48.144;17.098;2022-07-30T20:13:45;18.60;99.90
17998;DHT22;9124;48.144;17.098;2022-07-30T20:17:24;18.50;99.90
17998;DHT22;9124;48.144;17.098;2022-07-30T20:21:00;18.50;99.90
17998;DHT22;9124;48.144;17.098;2022-07-30T20:24:37;18.50;99.90
17998;DHT22;9124;48.144;17.098;2022-07-30T20:28:14;18.50;99.90
17998;DHT22;9124;48.144;17.098;2022-07-30T20:31:51;18.50;99.90
17998;DHT22;9124;48.144;17.098;2022-07-30T20:35:29;18.50;99.90
17998;DHT22;9124;48.144;17.098;2022-07-30T20:39:06;18.50;99.90
17998;DHT22;9124;48.144;17.098;2022-07-30T20:42:44;18.40;99.90
17998;DHT22;9124;48.144;17.098;2022-07-30T20:46:22;18.40;99.90
17998;DHT22;9124;48.144;17.098;2022-07-30T20:49:59;18.30;99.90
17998;DHT22;9124;48.144;17.098;2022-07-30T20:53:36;18.30;99.90
17998;DHT22;9124;48.144;17.098;2022-07-30T20:57:12;18.30;99.90
17998;DHT22;9124;48.144;17.098;2022-07-30T21:00:50;18.20;99.90
17998;DHT22;9124;48.144;17.098;2022-07-30T21:04:26;18.10;99.90
17998;DHT22;9124;48.144;17.098;2022-07-30T21:08:04;18.10;99.90
17998;DHT22;9124;48.144;17.098;2022-07-30T21:11:41;18.10;99.90
17998;DHT22;9124;48.144;17.098;2022-07-30T21:15:18;18.00;99.90
17998;DHT22;9124;48.144;17.098;2022-07-30T21:18:54;18.00;99.90
17998;DHT22;9124;48.144;17.098;2022-07-30T21:22:31;18.00;99.90
17998;DHT22;9124;48.144;17.098;2022-07-30T21:26:08;18.00;99.90
17998;DHT22;9124;48.144;17.098;2022-07-30T21:29:45;18.00;99.90
17998;DHT22;9124;48.144;17.098;2022-07-30T21:33:22;18.00;99.90
17998;DHT22;9124;48.144;17.098;2022-07-30T21:36:58;18.00;99.90
17998;DHT22;9124;48.144;17.098;2022-07-30T21:40:35;18.00;99.90
17998;DHT22;9124;48.144;17.098;2022-07-30T21:44:12;18.00;99.90
17998;DHT22;9124;48.144;17.098;2022-07-30T21:47:48;18.10;99.90
17998;DHT22;9124;48.144;17.098;2022-07-30T21:51:26;18.10;99.90
17998;DHT22;9124;48.144;17.098;2022-07-30T21:55:03;18.10;99.90
17998;DHT22;9124;48.144;17.098;2022-07-30T21:58:40;18.20;99.90
17998;DHT22;9124;48.144;17.098;2022-07-30T22:02:17;18.20;99.90
17998;DHT22;9124;48.144;17.098;2022-07-30T22:05:54;18.20;99.90
17998;DHT22;9124;48.144;17.098;2022-07-30T22:09:31;18.20;99.90
17998;DHT22;9124;48.144;17.098;2022-07-30T22:13:09;18.30;99.90
17998;DHT22;9124;48.144;17.098;2022-07-30T22:16:46;18.40;99.90
17998;DHT22;9124;48.144;17.098;2022-07-30T22:20:24;18.50;99.90
17998;DHT22;9124;48.144;17.098;2022-07-30T22:24:02;18.50;99.90
17998;DHT22;9124;48.144;17.098;2022-07-30T22:27:40;18.70;99.90
17998;DHT22;9124;48.144;17.098;2022-07-30T22:31:17;18.70;99.90
17998;DHT22;9124;48.144;17.098;2022-07-30T22:34:54;18.80;99.90
17998;DHT22;9124;48.144;17.098;2022-07-30T22:38:30;18.80;99.90
17998;DHT22;9124;48.144;17.098;2022-07-30T22:42:07;18.80;99.90
17998;DHT22;9124;48.144;17.098;2022-07-30T22:45:44;18.70;99.90
17998;DHT22;9124;48.144;17.098;2022-07-30T22:49:21;18.60;99.90
17998;DHT22;9124;48.144;17.098;2022-07-30T22:52:58;18.70;99.90
17998;DHT22;9124;48.144;17.098;2022-07-30T22:56:35;18.60;99.90
17998;DHT22;9124;48.144;17.098;2022-07-30T23:00:14;18.60;99.90
17998;DHT22;9124;48.144;17.098;2022-07-30T23:03:53;18.60;99.90
17998;DHT22;9124;48.144;17.098;2022-07-30T23:07:30;18.60;99.90
17998;DHT22;9124;48.144;17.098;2022-07-30T23:11:07;18.70;99.90
17998;DHT22;9124;48.144;17.098;2022-07-30T23:14:44;18.80;99.90
17998;DHT22;9124;48.144;17.098;2022-07-30T23:18:21;18.80;99.60
17998;DHT22;9124;48.144;17.098;2022-07-30T23:21:58;18.90;99.40
17998;DHT22;9124;48.144;17.098;2022-07-30T23:25:34;18.90;99.10
17998;DHT22;9124;48.144;17.098;2022-07-30T23:29:11;18.90;98.90
17998;DHT22;9124;48.144;17.098;2022-07-30T23:32:48;18.90;98.80